Paden City, West Virginia
Current Conditions -  °F | °C
As of 4:53 PM on Saturday 20 Dec 2014 (Local Time) from KPKB Reporting Station
Overcast Overcast  
Wind Chill: 33°   Ceiling: 2500
Heat Index: 33°   Visibility: 10mi
Dew Point: 22°   Wind: 3mph
Humidity: 64%   Direction: 320°NW
Pressure: 30.27"   Gusts: NA
Location:  39.6°N, 80.94°W
Report Text: KPKB 202153Z 32003KT 10SM BKN025 BKN048 OVC060 01/M06 A3027 RMK AO2 SLP259 T00061056
Loading
Personal Weather Stations






























Interactive Weather Map New forecast layout! Learn more

10-Day Weather Forecast

Advertisements
Track Severe Weather on mobile